Time;durP1;ratioP1;P1;durP2;ratioP2;P2;SDS_P1;SDS_P2;PMS_P1;PMS_P2;Temp;Humidity;BMP_temperature;BMP_pressure;BME280_temperature;BME280_humidity;BME280_pressure;Samples;Min_cycle;Max_cycle;Signal;HPM_P1;HPM_P2
2022/12/26 00:01:10;;;;;;;6.60;4.30;;;22.60;52.90;;;;;;212054;1288;24325;-61
2022/12/26 00:06:17;;;;;;;6.10;4.10;;;22.60;53.00;;;;;;212020;1316;26593;-61
2022/12/26 00:11:22;;;;;;;9.30;4.80;;;22.50;53.10;;;;;;212148;1297;22509;-63
2022/12/26 00:16:27;;;;;;;7.20;4.30;;;22.50;53.60;;;;;;211959;1299;150581;-60
2022/12/26 00:21:31;;;;;;;5.90;3.70;;;22.40;53.30;;;;;;211769;1317;22752;-62
2022/12/26 00:26:36;;;;;;;6.30;4.30;;;22.40;53.40;;;;;;211816;1295;24398;-61
2022/12/26 00:31:39;;;;;;;6.90;4.60;;;22.30;53.50;;;;;;211856;1311;26166;-60
2022/12/26 00:36:43;;;;;;;6.80;4.30;;;22.30;53.70;;;;;;211872;1297;24308;-63
2022/12/26 00:41:47;;;;;;;8.10;4.70;;;22.20;53.70;;;;;;211804;1309;22487;-61
2022/12/26 00:46:51;;;;;;;6.10;4.20;;;22.20;53.70;;;;;;211939;1318;22610;-59
2022/12/26 00:51:55;;;;;;;6.30;4.30;;;22.10;53.80;;;;;;211915;1295;22552;-61
2022/12/26 00:56:59;;;;;;;6.40;4.10;;;22.10;54.10;;;;;;212094;1309;23393;-61
2022/12/26 01:02:36;;;;;;;6.40;4.20;;;22.00;53.90;;;;;;211762;1297;22516;-60
2022/12/26 01:07:28;;;;;;;6.50;4.40;;;22.00;54.00;;;;;;211798;1296;22494;-61
2022/12/26 01:12:32;;;;;;;6.60;4.40;;;21.90;54.00;;;;;;211880;1297;22484;-62
2022/12/26 01:17:36;;;;;;;5.90;4.10;;;21.90;54.00;;;;;;211927;1299;24376;-61
2022/12/26 01:22:40;;;;;;;7.00;4.20;;;21.90;54.10;;;;;;212112;1298;22526;-61
2022/12/26 01:27:44;;;;;;;6.10;4.40;;;21.80;54.00;;;;;;212082;1310;23490;-61
2022/12/26 01:32:48;;;;;;;6.70;4.60;;;21.80;54.10;;;;;;211881;1303;22483;-61
2022/12/26 01:37:52;;;;;;;7.70;4.40;;;21.80;54.20;;;;;;212179;1310;22491;-61
2022/12/26 01:42:56;;;;;;;6.00;4.20;;;21.70;54.10;;;;;;212077;1303;22826;-61
2022/12/26 01:48:11;;;;;;;7.90;4.80;;;21.70;54.20;;;;;;212127;1308;22783;-60
2022/12/26 01:53:40;;;;;;;5.70;4.20;;;21.70;54.20;;;;;;212011;1297;22494;-60
2022/12/26 01:58:50;;;;;;;6.50;4.00;;;21.70;54.20;;;;;;211997;1301;24363;-61
2022/12/26 02:09:20;;;;;;;6.50;4.20;;;21.60;54.30;;;;;;211988;1305;22483;-61
2022/12/26 02:14:24;;;;;;;6.90;4.00;;;21.60;54.70;;;;;;211976;1297;24255;-60
2022/12/26 02:19:34;;;;;;;6.20;3.80;;;21.70;54.20;;;;;;211769;1306;22482;-60
2022/12/26 02:24:59;;;;;;;6.90;4.20;;;21.90;53.80;;;;;;211947;1295;23339;-62
2022/12/26 02:30:24;;;;;;;7.40;3.90;;;22.10;53.30;;;;;;211984;1303;22490;-61
2022/12/26 02:36:13;;;;;;;5.90;3.90;;;22.30;53.30;;;;;;212052;1306;22661;-62
2022/12/26 02:41:40;;;;;;;6.30;4.00;;;22.40;52.60;;;;;;211899;1299;22741;-59
2022/12/26 02:47:03;;;;;;;5.10;3.50;;;22.50;52.30;;;;;;212171;1309;23939;-62
2022/12/26 03:15:12;;;;;;;6.60;4.30;;;22.80;51.70;;;;;;212177;1295;22604;-61
2022/12/26 03:20:21;;;;;;;5.00;3.70;;;22.90;51.80;;;;;;212063;1311;25814;-61
2022/12/26 03:31:13;;;;;;;5.10;3.50;;;23.00;51.70;;;;;;212079;1309;22550;-61
2022/12/26 03:36:44;;;;;;;5.90;4.00;;;23.00;52.00;;;;;;212074;1302;24228;-60
2022/12/26 04:54:16;;;;;;;5.00;3.40;;;22.70;52.40;;;;;;212111;1311;25320;-61
2022/12/26 04:59:22;;;;;;;5.80;3.90;;;22.70;52.50;;;;;;212261;1303;22557;-61
2022/12/26 05:09:52;;;;;;;5.40;3.60;;;22.50;52.70;;;;;;212150;1309;23902;-60
2022/12/26 05:14:56;;;;;;;5.60;3.70;;;22.50;52.90;;;;;;212046;1310;23788;-59
2022/12/26 05:30:50;;;;;;;5.20;3.30;;;22.30;53.20;;;;;;211953;1296;24326;-60
2022/12/26 05:35:55;;;;;;;6.10;3.80;;;22.20;53.30;;;;;;212054;1303;22540;-60
2022/12/26 05:41:00;;;;;;;5.10;3.30;;;22.20;53.70;;;;;;212077;1301;22479;-60
2022/12/26 05:46:04;;;;;;;5.60;3.20;;;22.10;53.00;;;;;;211952;1296;22479;-59
2022/12/26 05:51:08;;;;;;;5.00;3.40;;;22.10;53.80;;;;;;211901;1309;22617;-60
2022/12/26 05:56:14;;;;;;;6.20;3.50;;;22.10;53.60;;;;;;211959;1315;22538;-61
2022/12/26 06:01:19;;;;;;;4.60;3.40;;;22.00;53.60;;;;;;212045;1303;22636;-59
2022/12/26 06:06:25;;;;;;;4.50;3.10;;;22.00;53.60;;;;;;212201;1287;24335;-59
2022/12/26 06:11:29;;;;;;;4.80;3.40;;;22.00;53.70;;;;;;211990;1302;24260;-61
2022/12/26 06:16:33;;;;;;;4.80;3.40;;;21.90;53.70;;;;;;212014;1302;22474;-61
2022/12/26 06:21:37;;;;;;;5.40;3.60;;;21.90;53.70;;;;;;211986;1302;22499;-61
2022/12/26 06:26:41;;;;;;;4.40;3.00;;;21.90;53.70;;;;;;212205;1305;22715;-61
2022/12/26 06:31:45;;;;;;;5.10;3.20;;;21.80;53.70;;;;;;212259;1296;22499;-60
2022/12/26 06:36:49;;;;;;;4.50;3.00;;;21.80;53.80;;;;;;212005;1303;22474;-61
2022/12/26 06:41:54;;;;;;;5.20;3.60;;;21.80;54.20;;;;;;212092;1301;22604;-61
2022/12/26 06:46:58;;;;;;;5.60;3.40;;;21.80;54.30;;;;;;212064;1296;22760;-60
2022/12/26 06:52:03;;;;;;;4.70;2.90;;;21.70;54.30;;;;;;212076;1315;22939;-61
2022/12/26 06:57:07;;;;;;;4.60;3.20;;;21.70;54.30;;;;;;212041;1290;22495;-59
2022/12/26 07:02:11;;;;;;;4.20;3.30;;;21.70;54.40;;;;;;211971;1296;22497;-61
2022/12/26 07:07:16;;;;;;;5.80;3.70;;;21.60;54.00;;;;;;211920;1293;24314;-60
2022/12/26 07:12:20;;;;;;;3.70;2.70;;;21.60;54.00;;;;;;211926;1315;24194;-61
2022/12/26 07:17:24;;;;;;;4.70;3.20;;;21.60;54.10;;;;;;212078;1300;22494;-59
2022/12/26 07:22:28;;;;;;;5.30;2.80;;;21.70;53.80;;;;;;212038;1315;23864;-59
2022/12/26 07:27:32;;;;;;;4.50;2.70;;;21.90;53.50;;;;;;212069;1301;22606;-61
2022/12/26 07:32:37;;;;;;;5.10;3.10;;;22.10;53.10;;;;;;212228;1297;24308;-60
2022/12/26 07:37:41;;;;;;;4.60;2.90;;;22.30;52.80;;;;;;212182;1306;24238;-60
2022/12/26 07:42:45;;;;;;;4.10;2.90;;;22.30;52.40;;;;;;212180;1294;22510;-59
2022/12/26 07:47:56;;;;;;;4.00;2.80;;;22.40;52.20;;;;;;212006;1295;22509;-61
2022/12/26 07:52:59;;;;;;;3.80;2.90;;;22.50;52.10;;;;;;211978;1302;24252;-60
2022/12/26 07:58:03;;;;;;;3.90;2.80;;;22.60;51.90;;;;;;212141;1300;24437;-61
2022/12/26 08:03:08;;;;;;;3.30;2.50;;;22.70;51.80;;;;;;211997;1302;25523;-60
2022/12/26 08:08:12;;;;;;;4.00;2.80;;;22.70;51.80;;;;;;212064;1296;25654;-61
2022/12/26 08:13:16;;;;;;;3.90;2.80;;;22.80;51.70;;;;;;212034;1302;24446;-60
2022/12/26 08:18:20;;;;;;;3.60;2.60;;;22.80;51.60;;;;;;212042;1309;22518;-61
2022/12/26 08:23:25;;;;;;;5.00;3.20;;;22.80;51.60;;;;;;212205;1306;23990;-61
2022/12/26 08:28:28;;;;;;;3.70;2.60;;;22.90;51.60;;;;;;211970;1306;22674;-59
2022/12/26 08:33:33;;;;;;;4.30;2.80;;;22.90;51.50;;;;;;211968;1310;22696;-61
2022/12/26 08:38:37;;;;;;;3.70;2.60;;;23.00;51.50;;;;;;212019;1296;24398;-61
2022/12/26 08:43:41;;;;;;;3.70;2.60;;;23.00;51.50;;;;;;211860;1306;22957;-61
2022/12/26 08:49:05;;;;;;;4.70;2.70;;;23.00;51.40;;;;;;211855;1300;22778;-61
2022/12/26 08:54:10;;;;;;;4.00;2.60;;;23.10;51.30;;;;;;211946;1303;23771;-60
2022/12/26 08:59:14;;;;;;;3.00;2.20;;;23.20;51.30;;;;;;212072;1296;24234;-61
2022/12/26 09:04:18;;;;;;;3.60;2.10;;;23.20;51.20;;;;;;212215;1303;24251;-60
2022/12/26 09:09:22;;;;;;;3.80;2.60;;;23.20;51.10;;;;;;212232;1293;22495;-61
2022/12/26 09:14:26;;;;;;;3.50;2.50;;;23.20;51.10;;;;;;212149;1316;25362;-60
2022/12/26 09:19:31;;;;;;;3.40;2.40;;;23.30;51.10;;;;;;212006;1306;23275;-60
2022/12/26 09:24:35;;;;;;;3.00;2.30;;;23.30;51.30;;;;;;212022;1303;24434;-60
2022/12/26 09:29:39;;;;;;;3.40;2.20;;;23.20;51.40;;;;;;212135;1298;25556;-60
2022/12/26 09:34:43;;;;;;;3.90;2.60;;;23.10;51.50;;;;;;212190;1302;22721;-61
2022/12/26 09:39:47;;;;;;;4.10;2.80;;;23.10;51.20;;;;;;212203;1309;22614;-61
2022/12/26 09:44:57;;;;;;;3.60;2.50;;;23.00;51.80;;;;;;212359;1311;22509;-57
2022/12/26 09:50:11;;;;;;;3.40;2.60;;;22.90;52.40;;;;;;212006;1309;22731;-58
2022/12/26 09:55:31;;;;;;;4.30;2.60;;;22.90;52.10;;;;;;212055;1301;24240;-61
2022/12/26 10:01:10;;;;;;;3.30;2.40;;;22.90;51.90;;;;;;212065;1310;22523;-58
2022/12/26 10:06:25;;;;;;;3.80;2.60;;;23.10;51.60;;;;;;212195;1310;24295;-60
2022/12/26 10:11:59;;;;;;;3.60;2.50;;;23.20;51.50;;;;;;212016;1303;23737;-59
2022/12/26 10:17:31;;;;;;;4.00;2.70;;;23.10;51.60;;;;;;212291;1302;24404;-60
2022/12/26 10:22:50;;;;;;;3.40;2.60;;;22.90;52.00;;;;;;212280;1304;26539;-60
2022/12/26 10:27:54;;;;;;;2.80;2.00;;;22.80;52.30;;;;;;212156;1315;24033;-61
2022/12/26 10:33:03;;;;;;;3.80;2.60;;;22.70;52.30;;;;;;212035;1302;24238;-58
2022/12/26 10:38:31;;;;;;;4.00;2.10;;;22.70;52.40;;;;;;211997;1316;22598;-59
2022/12/26 10:43:39;;;;;;;3.30;2.30;;;22.70;52.60;;;;;;211902;1310;22617;-60
2022/12/26 10:48:45;;;;;;;3.80;2.50;;;22.60;53.30;;;;;;212128;1294;22704;-61
2022/12/26 10:53:52;;;;;;;3.60;2.40;;;22.50;52.80;;;;;;212064;1317;25454;-60
2022/12/26 10:59:02;;;;;;;4.00;2.60;;;22.50;52.90;;;;;;212022;1309;24606;-60
2022/12/26 11:04:14;;;;;;;4.00;2.50;;;22.50;53.00;;;;;;211938;1317;25367;-61
2022/12/26 11:09:37;;;;;;;3.40;2.40;;;22.40;53.00;;;;;;211962;1309;22488;-58
2022/12/26 11:14:43;;;;;;;3.80;2.50;;;22.40;53.00;;;;;;212058;1317;22528;-59
2022/12/26 11:19:47;;;;;;;3.30;2.30;;;22.60;52.70;;;;;;212198;1317;22672;-61
2022/12/26 11:25:08;;;;;;;2.80;2.00;;;22.60;53.00;;;;;;212305;1309;22475;-58
2022/12/26 11:30:12;;;;;;;;;;;22.70;52.70;;;;;;212046;1305;24557;-60
2022/12/26 11:35:26;;;;;;;3.50;2.30;;;22.60;52.60;;;;;;212161;1312;22474;-59
2022/12/26 11:40:38;;;;;;;2.30;1.80;;;22.60;52.80;;;;;;212234;1307;22867;-59
2022/12/26 11:45:48;;;;;;;3.80;2.40;;;22.60;52.80;;;;;;211940;1302;24549;-59
2022/12/26 11:50:53;;;;;;;3.30;2.40;;;22.60;52.90;;;;;;212256;1302;22629;-59
2022/12/26 11:56:00;;;;;;;3.50;2.30;;;22.60;52.80;;;;;;212183;1303;23803;-59
2022/12/26 12:01:16;;;;;;;3.10;2.30;;;22.60;52.80;;;;;;212325;1315;22488;-60
2022/12/26 12:06:37;;;;;;;3.90;2.40;;;22.50;52.50;;;;;;211961;1303;22662;-61
2022/12/26 12:11:50;;;;;;;3.10;2.10;;;22.50;52.90;;;;;;211710;1305;152617;-61
2022/12/26 12:17:18;;;;;;;3.10;2.20;;;22.50;53.40;;;;;;212061;1316;22722;-61
2022/12/26 12:22:31;;;;;;;3.10;2.30;;;22.40;53.20;;;;;;212219;1317;22491;-63
2022/12/26 12:27:57;;;;;;;3.00;2.10;;;22.30;53.30;;;;;;211839;1303;23904;-60
2022/12/26 12:33:39;;;;;;;2.70;2.20;;;22.30;53.40;;;;;;212001;1301;23289;-60
2022/12/26 12:38:58;;;;;;;3.60;2.50;;;22.20;53.40;;;;;;212035;1302;22533;-61
2022/12/26 12:44:13;;;;;;;3.50;2.40;;;22.20;53.50;;;;;;211921;1300;24336;-60
2022/12/26 12:49:34;;;;;;;3.30;2.50;;;22.20;53.50;;;;;;211925;1289;22645;-60
2022/12/26 12:55:15;;;;;;;2.90;2.10;;;22.10;53.50;;;;;;212214;1309;22586;-60
2022/12/26 13:00:22;;;;;;;3.20;2.30;;;22.10;53.60;;;;;;211960;1306;22471;-61
2022/12/26 13:06:01;;;;;;;3.10;2.40;;;22.10;53.60;;;;;;211986;1295;22516;-59
2022/12/26 13:11:08;;;;;;;3.00;2.20;;;22.00;53.60;;;;;;210575;1319;23633;-58
2022/12/26 13:16:22;;;;;;;3.60;2.10;;;22.00;53.80;;;;;;211164;1309;24334;-60
2022/12/26 13:21:30;;;;;;;3.40;2.40;;;22.00;53.60;;;;;;210813;1306;24624;-60
2022/12/26 13:26:41;;;;;;;3.10;2.10;;;21.90;53.60;;;;;;210774;1309;22681;-61
2022/12/26 13:31:46;;;;;;;2.90;2.10;;;21.90;53.60;;;;;;210888;1306;24235;-59
2022/12/26 13:36:53;;;;;;;3.10;2.20;;;21.90;53.70;;;;;;210986;1321;22532;-59
2022/12/26 13:47:38;;;;;;;3.40;2.30;;;21.90;53.80;;;;;;211760;1306;23695;-61
2022/12/26 13:52:42;;;;;;;3.40;2.40;;;21.80;53.80;;;;;;211775;1301;22499;-61
2022/12/26 13:58:12;;;;;;;3.30;2.40;;;21.80;53.90;;;;;;211777;1305;25239;-61
2022/12/26 14:04:21;;;;;;;3.30;2.40;;;21.70;54.00;;;;;;211825;1309;22477;-62
2022/12/26 14:09:34;;;;;;;3.50;2.30;;;21.70;54.50;;;;;;211026;1321;25320;-59
2022/12/26 14:14:41;;;;;;;3.20;2.40;;;21.70;54.00;;;;;;210635;1311;22510;-57
2022/12/26 14:20:30;;;;;;;3.10;2.10;;;21.60;53.90;;;;;;210944;1305;22968;-60
2022/12/26 14:25:48;;;;;;;3.70;2.40;;;21.70;54.30;;;;;;210811;1315;22555;-61
2022/12/26 14:31:05;;;;;;;3.40;2.20;;;21.70;54.10;;;;;;210813;1303;22488;-58
2022/12/26 14:36:19;;;;;;;3.60;2.40;;;21.60;54.40;;;;;;210901;1315;22709;-61
2022/12/26 14:46:49;;;;;;;3.60;2.50;;;21.60;54.10;;;;;;211777;1309;22473;-60
2022/12/26 14:51:53;;;;;;;3.10;2.10;;;21.60;54.10;;;;;;211714;1299;22474;-59
2022/12/26 14:56:57;;;;;;;3.50;2.40;;;21.60;54.20;;;;;;211844;1295;22485;-60
2022/12/26 15:02:31;;;;;;;3.20;2.10;;;21.50;54.50;;;;;;211871;1312;22476;-61
2022/12/26 15:07:55;;;;;;;3.00;2.00;;;21.60;54.30;;;;;;211740;1303;22546;-61
2022/12/26 15:12:59;;;;;;;4.00;2.40;;;21.80;54.30;;;;;;211723;1316;24372;-61
2022/12/26 15:18:22;;;;;;;2.70;1.90;;;22.00;53.40;;;;;;211881;1310;22753;-61
2022/12/26 15:23:57;;;;;;;2.70;1.90;;;22.20;53.10;;;;;;211978;1312;23848;-60
2022/12/26 15:29:36;;;;;;;3.90;2.10;;;22.30;52.90;;;;;;211810;1312;22537;-61
2022/12/26 15:34:40;;;;;;;3.00;2.10;;;22.40;52.70;;;;;;211953;1304;22644;-60
2022/12/26 15:40:20;;;;;;;2.40;1.80;;;22.40;52.50;;;;;;212176;1310;22508;-60
2022/12/26 15:45:47;;;;;;;3.20;2.30;;;22.50;52.40;;;;;;212094;1315;25404;-59
2022/12/26 15:51:03;;;;;;;3.10;2.20;;;22.60;52.30;;;;;;212088;1312;22604;-60
2022/12/26 15:56:23;;;;;;;3.20;2.30;;;22.60;52.10;;;;;;211847;1299;24267;-60
2022/12/26 16:01:51;;;;;;;3.70;2.40;;;22.70;52.10;;;;;;211996;1315;22516;-61
2022/12/26 16:07:24;;;;;;;2.80;1.80;;;22.70;52.00;;;;;;211975;1303;24220;-59
2022/12/26 16:12:33;;;;;;;3.70;2.00;;;22.80;52.00;;;;;;212119;1304;22480;-61
2022/12/26 16:17:38;;;;;;;3.50;2.30;;;22.80;51.90;;;;;;212038;1303;22989;-59
2022/12/26 16:22:42;;;;;;;3.20;2.10;;;22.90;51.90;;;;;;211889;1310;24295;-61
2022/12/26 16:27:49;;;;;;;3.30;1.80;;;22.90;51.80;;;;;;211900;1312;22528;-61
2022/12/26 16:32:54;;;;;;;4.30;2.70;;;23.00;51.80;;;;;;211975;1303;25663;-63
2022/12/26 16:38:01;;;;;;;3.30;2.50;;;23.00;51.70;;;;;;212025;1310;22510;-60
2022/12/26 16:43:23;;;;;;;3.20;2.10;;;23.10;52.00;;;;;;212034;1305;22537;-57
2022/12/26 16:48:30;;;;;;;2.90;1.90;;;23.10;51.20;;;;;;211999;1297;22485;-62
2022/12/26 16:53:34;;;;;;;3.20;2.00;;;23.10;51.80;;;;;;212075;1297;25168;-61
2022/12/26 16:58:38;;;;;;;3.00;2.30;;;23.20;51.80;;;;;;212193;1303;22508;-60
2022/12/26 17:03:56;;;;;;;2.90;2.00;;;23.30;51.40;;;;;;212054;1309;25400;-62
2022/12/26 17:09:13;;;;;;;3.10;2.00;;;23.30;51.40;;;;;;212008;1292;24309;-61
2022/12/26 17:14:30;;;;;;;3.40;2.00;;;23.20;51.50;;;;;;211821;1309;22512;-61
2022/12/26 17:19:35;;;;;;;2.80;1.70;;;23.20;51.60;;;;;;211747;1310;26907;-60
2022/12/26 17:24:40;;;;;;;3.00;2.10;;;23.10;51.70;;;;;;211869;1315;26608;-60
2022/12/26 17:30:21;;;;;;;3.00;2.00;;;23.10;51.80;;;;;;212094;1306;22548;-62
2022/12/26 17:35:29;;;;;;;3.30;2.00;;;23.00;52.30;;;;;;211847;1305;22499;-61
2022/12/26 17:40:56;;;;;;;3.00;2.00;;;22.90;52.10;;;;;;211943;1302;24380;-60
2022/12/26 17:46:03;;;;;;;3.60;2.30;;;22.90;52.30;;;;;;211954;1311;25389;-61
2022/12/26 17:51:13;;;;;;;2.80;2.00;;;22.80;52.50;;;;;;212078;1303;22489;-60
2022/12/26 17:56:21;;;;;;;3.00;2.00;;;22.70;52.90;;;;;;212073;1318;25356;-60
2022/12/26 18:01:25;;;;;;;2.40;1.80;;;22.70;52.80;;;;;;212012;1311;25334;-64
2022/12/26 18:06:29;;;;;;;2.70;1.80;;;22.60;52.80;;;;;;212027;1295;22697;-60
2022/12/26 18:11:34;;;;;;;2.70;1.30;;;22.60;52.80;;;;;;212194;1303;24545;-59
2022/12/26 18:16:39;;;;;;;2.80;1.70;;;22.50;52.90;;;;;;211784;1296;22579;-60
2022/12/26 18:21:44;;;;;;;3.10;2.00;;;22.50;53.00;;;;;;212132;1308;23880;-62
2022/12/26 18:26:48;;;;;;;2.80;1.60;;;22.50;53.10;;;;;;212117;1294;25769;-60
2022/12/26 18:31:53;;;;;;;2.90;1.80;;;22.40;53.20;;;;;;212183;1301;22583;-62
2022/12/26 18:36:59;;;;;;;3.70;1.70;;;22.30;53.30;;;;;;211968;1302;24292;-61
2022/12/26 18:42:05;;;;;;;2.50;1.60;;;22.30;53.40;;;;;;212060;1296;23364;-61
2022/12/26 18:47:13;;;;;;;3.10;2.10;;;22.30;53.50;;;;;;211965;1297;22677;-61
2022/12/26 18:52:19;;;;;;;3.20;2.20;;;22.20;53.40;;;;;;211956;1317;25461;-60
2022/12/26 18:57:23;;;;;;;3.00;2.00;;;22.20;53.60;;;;;;212183;1311;24769;-60
2022/12/26 19:02:28;;;;;;;3.30;2.00;;;22.20;53.60;;;;;;212178;1303;22498;-59
2022/12/26 19:07:32;;;;;;;2.40;1.70;;;22.10;53.60;;;;;;212060;1296;22487;-59
2022/12/26 19:12:36;;;;;;;2.40;1.80;;;22.10;53.60;;;;;;211862;1315;22988;-59
2022/12/26 19:17:42;;;;;;;3.50;2.20;;;22.10;53.90;;;;;;211947;1312;22542;-59
2022/12/26 19:22:48;;;;;;;3.10;1.70;;;22.00;53.70;;;;;;212149;1303;24373;-60
2022/12/26 19:27:52;;;;;;;2.80;1.70;;;22.00;53.90;;;;;;212095;1303;22613;-61
2022/12/26 19:32:57;;;;;;;2.90;2.00;;;21.90;53.50;;;;;;211874;1309;22499;-60
2022/12/26 19:38:02;;;;;;;2.50;1.70;;;21.90;53.90;;;;;;212035;1309;22540;-60
2022/12/26 19:43:08;;;;;;;2.70;1.80;;;21.90;53.90;;;;;;211986;1305;22510;-61
2022/12/26 19:48:13;;;;;;;2.60;1.80;;;21.90;54.00;;;;;;212057;1296;24371;-63
2022/12/26 19:53:17;;;;;;;2.80;1.70;;;21.80;53.90;;;;;;211952;1317;25292;-60
2022/12/26 19:58:23;;;;;;;4.70;1.90;;;21.80;54.60;;;;;;211862;1299;22488;-60
2022/12/26 20:03:27;;;;;;;2.80;1.70;;;21.80;54.10;;;;;;212057;1303;24995;-61
2022/12/26 20:08:32;;;;;;;2.60;1.70;;;21.80;54.20;;;;;;211704;1303;22494;-60
2022/12/26 20:13:38;;;;;;;2.60;1.70;;;21.70;54.10;;;;;;211865;1311;22494;-60
2022/12/26 20:18:43;;;;;;;5.20;2.30;;;21.70;54.60;;;;;;211896;1302;22454;-62
2022/12/26 20:23:49;;;;;;;7.40;2.50;;;21.60;54.00;;;;;;211956;1296;22604;-62
2022/12/26 20:29:01;;;;;;;6.50;2.20;;;21.60;54.00;;;;;;212180;1310;24444;-60
2022/12/26 20:34:06;;;;;;;10.60;2.40;;;21.70;54.30;;;;;;212027;1316;22620;-64
2022/12/26 20:39:15;;;;;;;7.00;2.10;;;21.70;54.70;;;;;;212028;1312;23859;-58
2022/12/26 20:44:19;;;;;;;11.80;3.20;;;21.70;54.70;;;;;;211861;1296;25343;-62
2022/12/26 20:49:24;;;;;;;13.10;2.90;;;21.80;54.60;;;;;;211888;1308;22505;-61
2022/12/26 20:54:30;;;;;;;7.20;2.40;;;21.70;54.60;;;;;;212315;1315;22648;-60
2022/12/26 20:59:37;;;;;;;10.10;2.50;;;21.70;54.90;;;;;;212175;1310;22541;-65
2022/12/26 21:04:43;;;;;;;5.30;2.40;;;21.70;55.50;;;;;;212008;1299;22610;-59
2022/12/26 21:09:47;;;;;;;6.40;2.50;;;21.70;55.60;;;;;;211761;1297;24245;-58
2022/12/26 21:14:52;;;;;;;11.20;2.40;;;21.70;55.00;;;;;;214112;1310;25360;-59
2022/12/26 21:19:57;;;;;;;6.90;2.80;;;21.70;56.40;;;;;;211888;1296;25548;-61
2022/12/26 21:25:01;;;;;;;9.90;2.80;;;21.70;54.70;;;;;;211882;1315;23027;-58
2022/12/26 21:30:07;;;;;;;22.20;3.20;;;21.70;55.60;;;;;;211874;1304;25428;-59
2022/12/26 21:35:12;;;;;;;14.80;2.90;;;21.70;55.80;;;;;;211768;1298;22606;-61
2022/12/26 21:40:21;;;;;;;8.70;3.70;;;21.60;55.80;;;;;;211905;1305;23861;-61
2022/12/26 21:45:26;;;;;;;9.00;2.50;;;21.60;55.70;;;;;;211757;1318;26630;-59
2022/12/26 21:50:30;;;;;;;10.60;2.90;;;21.60;56.10;;;;;;211705;1296;22536;-60
2022/12/26 21:55:36;;;;;;;11.80;3.10;;;21.50;56.40;;;;;;211822;1308;22493;-59
2022/12/26 22:00:40;;;;;;;12.50;4.30;;;21.50;56.30;;;;;;211803;1297;22732;-60
2022/12/26 22:05:45;;;;;;;7.50;2.50;;;21.50;56.80;;;;;;211837;1299;24526;-60
2022/12/26 22:16:12;;;;;;;9.90;2.80;;;21.40;56.50;;;;;;211822;1307;22605;-58
2022/12/26 22:21:21;;;;;;;8.40;2.90;;;21.50;57.10;;;;;;211741;1299;22477;-56
2022/12/26 22:26:28;;;;;;;10.20;3.00;;;21.60;57.80;;;;;;211902;1296;22558;-57
2022/12/26 22:31:34;;;;;;;10.60;2.60;;;21.90;57.80;;;;;;211855;1317;25373;-58
2022/12/26 22:36:40;;;;;;;8.60;2.90;;;22.00;56.80;;;;;;211650;1297;22534;-54
2022/12/26 22:41:45;;;;;;;7.80;2.90;;;22.20;56.10;;;;;;211866;1312;24224;-57
2022/12/26 22:46:49;;;;;;;6.00;2.60;;;22.30;55.90;;;;;;211708;1309;25279;-57
2022/12/26 22:51:54;;;;;;;7.20;2.60;;;22.40;56.00;;;;;;211816;1303;24234;-57
2022/12/26 22:56:58;;;;;;;6.40;3.10;;;22.40;55.80;;;;;;211422;1307;24250;-55
2022/12/26 23:02:02;;;;;;;8.40;3.00;;;22.60;56.10;;;;;;211699;1302;22503;-58
2022/12/26 23:07:13;;;;;;;9.80;2.80;;;22.70;55.90;;;;;;211647;1318;22660;-57
2022/12/26 23:23:08;;;;;;;5.20;2.30;;;23.00;55.50;;;;;;211975;1309;22561;-55
2022/12/26 23:33:35;;;;;;;7.50;2.50;;;23.20;55.10;;;;;;211808;1303;22537;-56
2022/12/26 23:38:39;;;;;;;4.70;2.50;;;23.30;54.40;;;;;;211810;1312;22503;-55
2022/12/26 23:43:43;;;;;;;4.20;2.40;;;23.30;54.80;;;;;;212000;1292;22497;-53
2022/12/26 23:48:47;;;;;;;4.60;2.50;;;23.20;54.90;;;;;;212089;1309;22727;-55
2022/12/26 23:53:51;;;;;;;3.90;2.30;;;23.20;55.10;;;;;;211681;1310;23551;-51
2022/12/26 23:58:55;;;;;;;5.10;2.20;;;23.10;55.30;;;;;;212067;1297;22624;-57
